sensor_id;sensor_type;location;lat;lon;timestamp;temperature;humidity
59309;DHT22;48433;53.016;-2.260;2023-06-05T00:00:43;11.60;99.90
59309;DHT22;48433;53.016;-2.260;2023-06-05T00:03:11;11.50;99.90
59309;DHT22;48433;53.016;-2.260;2023-06-05T00:05:38;11.50;99.90
59309;DHT22;48433;53.016;-2.260;2023-06-05T00:08:06;11.50;99.90
59309;DHT22;48433;53.016;-2.260;2023-06-05T00:10:34;11.50;99.90
59309;DHT22;48433;53.016;-2.260;2023-06-05T00:13:01;11.40;99.90
59309;DHT22;48433;53.016;-2.260;2023-06-05T00:15:29;11.40;99.90
59309;DHT22;48433;53.016;-2.260;2023-06-05T00:17:58;11.40;99.90
59309;DHT22;48433;53.016;-2.260;2023-06-05T00:20:26;11.40;99.90
59309;DHT22;48433;53.016;-2.260;2023-06-05T00:22:53;11.40;99.90
59309;DHT22;48433;53.016;-2.260;2023-06-05T00:25:22;11.40;99.90
59309;DHT22;48433;53.016;-2.260;2023-06-05T00:27:49;11.30;99.90
59309;DHT22;48433;53.016;-2.260;2023-06-05T00:30:18;11.40;99.90
59309;DHT22;48433;53.016;-2.260;2023-06-05T00:32:46;11.40;99.90
59309;DHT22;48433;53.016;-2.260;2023-06-05T00:35:14;11.30;99.90
59309;DHT22;48433;53.016;-2.260;2023-06-05T00:37:42;11.30;99.90
59309;DHT22;48433;53.016;-2.260;2023-06-05T00:40:11;11.30;99.90
59309;DHT22;48433;53.016;-2.260;2023-06-05T00:42:38;11.30;99.90
59309;DHT22;48433;53.016;-2.260;2023-06-05T00:45:08;11.40;99.90
59309;DHT22;48433;53.016;-2.260;2023-06-05T00:47:35;11.40;99.90
59309;DHT22;48433;53.016;-2.260;2023-06-05T00:50:03;11.40;99.90
59309;DHT22;48433;53.016;-2.260;2023-06-05T00:52:31;11.40;99.90
59309;DHT22;48433;53.016;-2.260;2023-06-05T00:54:59;11.40;99.90
59309;DHT22;48433;53.016;-2.260;2023-06-05T00:57:27;11.40;99.90
59309;DHT22;48433;53.016;-2.260;2023-06-05T00:59:55;11.40;99.90
59309;DHT22;48433;53.016;-2.260;2023-06-05T01:02:23;11.40;99.90
59309;DHT22;48433;53.016;-2.260;2023-06-05T01:04:52;11.40;99.90
59309;DHT22;48433;53.016;-2.260;2023-06-05T01:07:20;11.10;99.90
59309;DHT22;48433;53.016;-2.260;2023-06-05T01:09:48;11.40;99.90
59309;DHT22;48433;53.016;-2.260;2023-06-05T01:14:48;11.40;99.90
59309;DHT22;48433;53.016;-2.260;2023-06-05T01:17:16;11.30;99.90
59309;DHT22;48433;53.016;-2.260;2023-06-05T01:19:46;11.40;99.90
59309;DHT22;48433;53.016;-2.260;2023-06-05T01:22:17;11.40;99.90
59309;DHT22;48433;53.016;-2.260;2023-06-05T01:24:44;11.40;99.90
59309;DHT22;48433;53.016;-2.260;2023-06-05T01:27:14;11.40;99.90
59309;DHT22;48433;53.016;-2.260;2023-06-05T01:30:05;11.40;99.90
59309;DHT22;48433;53.016;-2.260;2023-06-05T01:35:09;11.40;99.90
59309;DHT22;48433;53.016;-2.260;2023-06-05T01:37:39;11.40;99.90
59309;DHT22;48433;53.016;-2.260;2023-06-05T01:40:12;9.20;99.90
59309;DHT22;48433;53.016;-2.260;2023-06-05T01:42:41;11.50;99.90
59309;DHT22;48433;53.016;-2.260;2023-06-05T01:45:12;11.60;99.90
59309;DHT22;48433;53.016;-2.260;2023-06-05T01:47:40;11.60;99.90
59309;DHT22;48433;53.016;-2.260;2023-06-05T01:50:08;11.70;99.90
59309;DHT22;48433;53.016;-2.260;2023-06-05T01:52:36;11.70;99.90
59309;DHT22;48433;53.016;-2.260;2023-06-05T01:55:07;11.80;99.90
59309;DHT22;48433;53.016;-2.260;2023-06-05T01:57:42;11.80;99.90
59309;DHT22;48433;53.016;-2.260;2023-06-05T02:00:10;11.80;99.90
59309;DHT22;48433;53.016;-2.260;2023-06-05T02:02:45;11.80;99.90
59309;DHT22;48433;53.016;-2.260;2023-06-05T02:05:13;11.80;99.90
59309;DHT22;48433;53.016;-2.260;2023-06-05T02:07:43;11.80;99.90
59309;DHT22;48433;53.016;-2.260;2023-06-05T02:10:15;11.80;99.90
59309;DHT22;48433;53.016;-2.260;2023-06-05T02:12:43;11.80;99.90
59309;DHT22;48433;53.016;-2.260;2023-06-05T02:15:11;11.90;99.90
59309;DHT22;48433;53.016;-2.260;2023-06-05T02:17:43;12.00;99.90
59309;DHT22;48433;53.016;-2.260;2023-06-05T02:20:19;12.00;99.90
59309;DHT22;48433;53.016;-2.260;2023-06-05T02:22:47;12.00;99.90
59309;DHT22;48433;53.016;-2.260;2023-06-05T02:25:19;12.00;99.90
59309;DHT22;48433;53.016;-2.260;2023-06-05T02:27:48;12.00;99.90
59309;DHT22;48433;53.016;-2.260;2023-06-05T02:30:15;12.00;99.90
59309;DHT22;48433;53.016;-2.260;2023-06-05T02:32:43;12.00;99.90
59309;DHT22;48433;53.016;-2.260;2023-06-05T02:35:11;12.00;99.90
59309;DHT22;48433;53.016;-2.260;2023-06-05T02:37:39;11.90;99.90
59309;DHT22;48433;53.016;-2.260;2023-06-05T02:40:11;11.90;99.90
59309;DHT22;48433;53.016;-2.260;2023-06-05T02:42:39;11.90;99.90
59309;DHT22;48433;53.016;-2.260;2023-06-05T02:45:08;11.90;99.90
59309;DHT22;48433;53.016;-2.260;2023-06-05T02:47:36;11.90;99.90
59309;DHT22;48433;53.016;-2.260;2023-06-05T02:50:05;11.90;99.90
59309;DHT22;48433;53.016;-2.260;2023-06-05T02:52:37;11.90;99.90
59309;DHT22;48433;53.016;-2.260;2023-06-05T02:55:13;11.90;99.90
59309;DHT22;48433;53.016;-2.260;2023-06-05T02:57:42;11.80;99.90
59309;DHT22;48433;53.016;-2.260;2023-06-05T03:00:14;11.90;99.90
59309;DHT22;48433;53.016;-2.260;2023-06-05T03:02:49;11.90;99.90
59309;DHT22;48433;53.016;-2.260;2023-06-05T03:05:21;11.90;99.90
59309;DHT22;48433;53.016;-2.260;2023-06-05T03:07:55;11.90;99.90
59309;DHT22;48433;53.016;-2.260;2023-06-05T03:10:23;11.90;99.90
59309;DHT22;48433;53.016;-2.260;2023-06-05T03:12:51;11.90;99.90
59309;DHT22;48433;53.016;-2.260;2023-06-05T03:15:19;11.90;99.90
59309;DHT22;48433;53.016;-2.260;2023-06-05T03:17:49;11.90;99.90
59309;DHT22;48433;53.016;-2.260;2023-06-05T03:20:20;11.90;99.90
59309;DHT22;48433;53.016;-2.260;2023-06-05T03:22:48;11.90;99.90
59309;DHT22;48433;53.016;-2.260;2023-06-05T03:25:15;11.80;99.90
59309;DHT22;48433;53.016;-2.260;2023-06-05T03:27:44;11.80;99.90
59309;DHT22;48433;53.016;-2.260;2023-06-05T03:30:14;11.80;99.90
59309;DHT22;48433;53.016;-2.260;2023-06-05T03:32:47;11.80;99.90
59309;DHT22;48433;53.016;-2.260;2023-06-05T03:35:16;11.80;99.90
59309;DHT22;48433;53.016;-2.260;2023-06-05T03:37:45;11.80;99.90
59309;DHT22;48433;53.016;-2.260;2023-06-05T03:40:12;11.70;99.90
59309;DHT22;48433;53.016;-2.260;2023-06-05T03:42:42;11.70;99.90
59309;DHT22;48433;53.016;-2.260;2023-06-05T03:45:09;11.70;99.90
59309;DHT22;48433;53.016;-2.260;2023-06-05T03:47:38;11.70;99.90
59309;DHT22;48433;53.016;-2.260;2023-06-05T03:50:10;11.80;99.90
59309;DHT22;48433;53.016;-2.260;2023-06-05T03:52:41;11.70;99.90
59309;DHT22;48433;53.016;-2.260;2023-06-05T03:55:09;11.80;99.90
59309;DHT22;48433;53.016;-2.260;2023-06-05T03:57:38;11.80;99.90
59309;DHT22;48433;53.016;-2.260;2023-06-05T04:00:08;11.80;99.90
59309;DHT22;48433;53.016;-2.260;2023-06-05T04:02:51;11.90;99.90
59309;DHT22;48433;53.016;-2.260;2023-06-05T04:05:20;11.90;99.90
59309;DHT22;48433;53.016;-2.260;2023-06-05T04:07:48;11.90;99.90
59309;DHT22;48433;53.016;-2.260;2023-06-05T04:10:16;11.90;99.90
59309;DHT22;48433;53.016;-2.260;2023-06-05T04:12:43;11.90;99.90
59309;DHT22;48433;53.016;-2.260;2023-06-05T04:15:10;11.90;99.90
59309;DHT22;48433;53.016;-2.260;2023-06-05T04:17:40;12.00;99.90
59309;DHT22;48433;53.016;-2.260;2023-06-05T04:20:09;12.00;99.90
59309;DHT22;48433;53.016;-2.260;2023-06-05T04:22:42;12.00;99.90
59309;DHT22;48433;53.016;-2.260;2023-06-05T04:25:10;12.10;99.90
59309;DHT22;48433;53.016;-2.260;2023-06-05T04:27:38;12.00;99.90
59309;DHT22;48433;53.016;-2.260;2023-06-05T04:30:06;12.00;99.90
59309;DHT22;48433;53.016;-2.260;2023-06-05T04:32:37;12.00;99.90
59309;DHT22;48433;53.016;-2.260;2023-06-05T04:35:06;12.00;99.90
59309;DHT22;48433;53.016;-2.260;2023-06-05T04:37:36;12.00;99.90
59309;DHT22;48433;53.016;-2.260;2023-06-05T04:40:04;12.10;99.90
59309;DHT22;48433;53.016;-2.260;2023-06-05T04:42:33;12.10;99.90
59309;DHT22;48433;53.016;-2.260;2023-06-05T04:45:03;12.10;99.90
59309;DHT22;48433;53.016;-2.260;2023-06-05T04:47:35;12.10;99.90
59309;DHT22;48433;53.016;-2.260;2023-06-05T04:50:03;12.10;99.90
59309;DHT22;48433;53.016;-2.260;2023-06-05T04:52:32;12.20;99.90
59309;DHT22;48433;53.016;-2.260;2023-06-05T04:55:00;12.20;99.90
59309;DHT22;48433;53.016;-2.260;2023-06-05T04:57:32;12.20;99.90
59309;DHT22;48433;53.016;-2.260;2023-06-05T05:00:03;12.30;99.90
59309;DHT22;48433;53.016;-2.260;2023-06-05T05:02:32;12.20;99.90
59309;DHT22;48433;53.016;-2.260;2023-06-05T05:05:00;12.30;99.90
59309;DHT22;48433;53.016;-2.260;2023-06-05T05:07:27;12.30;99.90
59309;DHT22;48433;53.016;-2.260;2023-06-05T05:09:56;12.40;99.90
59309;DHT22;48433;53.016;-2.260;2023-06-05T05:12:23;12.50;99.90
59309;DHT22;48433;53.016;-2.260;2023-06-05T05:14:51;12.50;99.90
59309;DHT22;48433;53.016;-2.260;2023-06-05T05:17:19;12.50;99.90
59309;DHT22;48433;53.016;-2.260;2023-06-05T05:19:47;12.50;99.90
59309;DHT22;48433;53.016;-2.260;2023-06-05T05:22:15;12.50;99.90
59309;DHT22;48433;53.016;-2.260;2023-06-05T05:24:43;12.50;99.90
59309;DHT22;48433;53.016;-2.260;2023-06-05T05:27:10;12.50;99.90
59309;DHT22;48433;53.016;-2.260;2023-06-05T05:29:38;12.50;99.90
59309;DHT22;48433;53.016;-2.260;2023-06-05T05:32:05;12.50;99.90
59309;DHT22;48433;53.016;-2.260;2023-06-05T05:34:33;12.40;99.90
59309;DHT22;48433;53.016;-2.260;2023-06-05T05:37:01;11.70;99.90
59309;DHT22;48433;53.016;-2.260;2023-06-05T05:39:31;12.40;99.90
59309;DHT22;48433;53.016;-2.260;2023-06-05T05:41:59;12.40;99.90
59309;DHT22;48433;53.016;-2.260;2023-06-05T05:44:28;12.40;99.90
59309;DHT22;48433;53.016;-2.260;2023-06-05T05:46:56;12.40;99.90
59309;DHT22;48433;53.016;-2.260;2023-06-05T05:49:23;12.40;99.90
59309;DHT22;48433;53.016;-2.260;2023-06-05T05:51:51;12.50;99.90
59309;DHT22;48433;53.016;-2.260;2023-06-05T05:54:18;12.50;99.90
59309;DHT22;48433;53.016;-2.260;2023-06-05T05:56:46;12.60;99.90
59309;DHT22;48433;53.016;-2.260;2023-06-05T05:59:14;12.70;99.90
59309;DHT22;48433;53.016;-2.260;2023-06-05T06:01:42;12.80;99.90
59309;DHT22;48433;53.016;-2.260;2023-06-05T06:04:10;12.80;99.90
59309;DHT22;48433;53.016;-2.260;2023-06-05T06:06:38;12.80;99.90
59309;DHT22;48433;53.016;-2.260;2023-06-05T06:09:07;12.90;99.90
59309;DHT22;48433;53.016;-2.260;2023-06-05T06:11:37;12.90;99.90
59309;DHT22;48433;53.016;-2.260;2023-06-05T06:14:04;12.90;99.90
59309;DHT22;48433;53.016;-2.260;2023-06-05T06:16:32;13.00;99.90
59309;DHT22;48433;53.016;-2.260;2023-06-05T06:19:00;13.00;99.90
59309;DHT22;48433;53.016;-2.260;2023-06-05T06:21:27;13.00;99.90
59309;DHT22;48433;53.016;-2.260;2023-06-05T06:23:55;13.00;99.90
59309;DHT22;48433;53.016;-2.260;2023-06-05T06:26:22;13.00;99.90
59309;DHT22;48433;53.016;-2.260;2023-06-05T06:28:50;13.10;99.90
59309;DHT22;48433;53.016;-2.260;2023-06-05T06:31:17;13.10;99.90
59309;DHT22;48433;53.016;-2.260;2023-06-05T06:33:45;13.10;99.90
59309;DHT22;48433;53.016;-2.260;2023-06-05T06:36:12;13.20;99.90
59309;DHT22;48433;53.016;-2.260;2023-06-05T06:38:40;13.20;99.90
59309;DHT22;48433;53.016;-2.260;2023-06-05T06:41:08;13.30;99.90
59309;DHT22;48433;53.016;-2.260;2023-06-05T06:43:36;13.30;99.90
59309;DHT22;48433;53.016;-2.260;2023-06-05T06:46:04;13.40;99.80
59309;DHT22;48433;53.016;-2.260;2023-06-05T06:48:32;13.40;99.90
59309;DHT22;48433;53.016;-2.260;2023-06-05T06:51:01;13.50;99.90
59309;DHT22;48433;53.016;-2.260;2023-06-05T06:53:29;13.50;99.70
59309;DHT22;48433;53.016;-2.260;2023-06-05T06:55:56;13.50;99.30
59309;DHT22;48433;53.016;-2.260;2023-06-05T06:58:24;13.60;99.60
59309;DHT22;48433;53.016;-2.260;2023-06-05T07:00:52;13.60;99.50
59309;DHT22;48433;53.016;-2.260;2023-06-05T07:03:20;13.60;99.50
59309;DHT22;48433;53.016;-2.260;2023-06-05T07:05:48;13.70;99.30
59309;DHT22;48433;53.016;-2.260;2023-06-05T07:08:16;13.70;99.40
59309;DHT22;48433;53.016;-2.260;2023-06-05T07:10:43;13.80;99.40
59309;DHT22;48433;53.016;-2.260;2023-06-05T07:13:11;13.90;99.00
59309;DHT22;48433;53.016;-2.260;2023-06-05T07:15:38;13.90;98.80
59309;DHT22;48433;53.016;-2.260;2023-06-05T07:18:06;13.90;99.00
59309;DHT22;48433;53.016;-2.260;2023-06-05T07:20:33;13.80;99.00
59309;DHT22;48433;53.016;-2.260;2023-06-05T07:23:01;13.80;99.00
59309;DHT22;48433;53.016;-2.260;2023-06-05T07:25:29;13.90;98.90
59309;DHT22;48433;53.016;-2.260;2023-06-05T07:27:56;13.90;99.00
59309;DHT22;48433;53.016;-2.260;2023-06-05T07:30:26;14.00;98.70
59309;DHT22;48433;53.016;-2.260;2023-06-05T07:32:55;14.20;98.80
59309;DHT22;48433;53.016;-2.260;2023-06-05T07:35:23;14.30;98.20
59309;DHT22;48433;53.016;-2.260;2023-06-05T07:37:51;14.30;98.30
59309;DHT22;48433;53.016;-2.260;2023-06-05T07:40:19;14.30;98.40
59309;DHT22;48433;53.016;-2.260;2023-06-05T07:42:47;14.40;98.20
59309;DHT22;48433;53.016;-2.260;2023-06-05T07:45:15;14.50;97.80
59309;DHT22;48433;53.016;-2.260;2023-06-05T07:47:43;14.50;98.00
59309;DHT22;48433;53.016;-2.260;2023-06-05T07:50:11;14.40;97.90
59309;DHT22;48433;53.016;-2.260;2023-06-05T07:52:38;14.40;97.90
59309;DHT22;48433;53.016;-2.260;2023-06-05T07:55:06;14.50;97.60
59309;DHT22;48433;53.016;-2.260;2023-06-05T07:57:35;14.50;97.90
59309;DHT22;48433;53.016;-2.260;2023-06-05T08:00:04;14.60;97.70
59309;DHT22;48433;53.016;-2.260;2023-06-05T08:02:40;14.60;97.50
59309;DHT22;48433;53.016;-2.260;2023-06-05T08:05:08;14.70;97.30
59309;DHT22;48433;53.016;-2.260;2023-06-05T08:07:36;14.70;97.50
59309;DHT22;48433;53.016;-2.260;2023-06-05T08:10:03;14.80;97.30
59309;DHT22;48433;53.016;-2.260;2023-06-05T08:12:31;14.90;97.20
59309;DHT22;48433;53.016;-2.260;2023-06-05T08:14:58;15.20;96.70
59309;DHT22;48433;53.016;-2.260;2023-06-05T08:17:27;15.20;96.80
59309;DHT22;48433;53.016;-2.260;2023-06-05T08:19:55;15.30;96.80
59309;DHT22;48433;53.016;-2.260;2023-06-05T08:22:22;15.60;96.10
59309;DHT22;48433;53.016;-2.260;2023-06-05T08:24:50;15.80;95.80
59309;DHT22;48433;53.016;-2.260;2023-06-05T08:27:20;15.80;96.10
59309;DHT22;48433;53.016;-2.260;2023-06-05T08:29:48;16.00;96.10
59309;DHT22;48433;53.016;-2.260;2023-06-05T08:32:15;16.10;95.70
59309;DHT22;48433;53.016;-2.260;2023-06-05T08:34:45;16.50;94.70
59309;DHT22;48433;53.016;-2.260;2023-06-05T08:37:12;16.50;95.00
59309;DHT22;48433;53.016;-2.260;2023-06-05T08:39:39;16.60;94.60
59309;DHT22;48433;53.016;-2.260;2023-06-05T08:42:07;16.70;94.40
59309;DHT22;48433;53.016;-2.260;2023-06-05T08:44:35;16.90;93.70
59309;DHT22;48433;53.016;-2.260;2023-06-05T08:47:06;16.90;94.00
59309;DHT22;48433;53.016;-2.260;2023-06-05T08:49:36;17.00;94.00
59309;DHT22;48433;53.016;-2.260;2023-06-05T08:52:07;17.10;93.80
59309;DHT22;48433;53.016;-2.260;2023-06-05T08:54:38;17.70;93.00
59309;DHT22;48433;53.016;-2.260;2023-06-05T08:57:06;17.60;93.30
59309;DHT22;48433;53.016;-2.260;2023-06-05T08:59:34;18.00;92.80
59309;DHT22;48433;53.016;-2.260;2023-06-05T09:02:01;18.40;92.10
59309;DHT22;48433;53.016;-2.260;2023-06-05T09:04:29;18.60;91.60
59309;DHT22;48433;53.016;-2.260;2023-06-05T09:06:57;18.90;90.80
59309;DHT22;48433;53.016;-2.260;2023-06-05T09:09:25;19.00;90.60
59309;DHT22;48433;53.016;-2.260;2023-06-05T09:14:30;19.20;90.10
59309;DHT22;48433;53.016;-2.260;2023-06-05T09:17:01;19.30;88.50
59309;DHT22;48433;53.016;-2.260;2023-06-05T09:19:38;19.30;88.20
59309;DHT22;48433;53.016;-2.260;2023-06-05T09:22:09;19.30;88.50
59309;DHT22;48433;53.016;-2.260;2023-06-05T09:24:37;19.10;87.70
59309;DHT22;48433;53.016;-2.260;2023-06-05T09:27:06;18.90;87.20
59309;DHT22;48433;53.016;-2.260;2023-06-05T09:29:38;18.90;87.60
59309;DHT22;48433;53.016;-2.260;2023-06-05T09:34:40;19.30;87.50
59309;DHT22;48433;53.016;-2.260;2023-06-05T09:37:11;19.50;85.30
59309;DHT22;48433;53.016;-2.260;2023-06-05T09:39:39;19.30;85.00
59309;DHT22;48433;53.016;-2.260;2023-06-05T09:42:06;19.20;85.20
59309;DHT22;48433;53.016;-2.260;2023-06-05T09:44:34;19.20;85.90
59309;DHT22;48433;53.016;-2.260;2023-06-05T09:47:06;19.30;85.00
59309;DHT22;48433;53.016;-2.260;2023-06-05T09:52:06;19.50;84.20
59309;DHT22;48433;53.016;-2.260;2023-06-05T09:54:36;19.30;84.10
59309;DHT22;48433;53.016;-2.260;2023-06-05T09:57:04;19.30;84.00
59309;DHT22;48433;53.016;-2.260;2023-06-05T09:59:34;19.40;84.00
59309;DHT22;48433;53.016;-2.260;2023-06-05T10:02:03;19.60;82.50
59309;DHT22;48433;53.016;-2.260;2023-06-05T10:04:32;19.90;82.30
59309;DHT22;48433;53.016;-2.260;2023-06-05T10:07:05;20.40;81.10
59309;DHT22;48433;53.016;-2.260;2023-06-05T10:09:32;20.90;80.40
59309;DHT22;48433;53.016;-2.260;2023-06-05T10:12:00;21.30;78.50
59309;DHT22;48433;53.016;-2.260;2023-06-05T10:14:28;21.50;77.30
59309;DHT22;48433;53.016;-2.260;2023-06-05T10:16:56;21.80;76.50
59309;DHT22;48433;53.016;-2.260;2023-06-05T10:19:27;22.00;75.70
59309;DHT22;48433;53.016;-2.260;2023-06-05T10:21:54;22.40;74.00
59309;DHT22;48433;53.016;-2.260;2023-06-05T10:40:16;24.00;65.40
59309;DHT22;48433;53.016;-2.260;2023-06-05T10:42:44;24.50;64.50
59309;DHT22;48433;53.016;-2.260;2023-06-05T10:45:11;25.10;60.60
59309;DHT22;48433;53.016;-2.260;2023-06-05T10:52:45;25.60;59.90
59309;DHT22;48433;53.016;-2.260;2023-06-05T10:55:13;25.90;56.90
59309;DHT22;48433;53.016;-2.260;2023-06-05T11:00:28;26.10;57.40
59309;DHT22;48433;53.016;-2.260;2023-06-05T11:02:55;26.20;55.80
59309;DHT22;48433;53.016;-2.260;2023-06-05T11:05:27;26.50;54.90
59309;DHT22;48433;53.016;-2.260;2023-06-05T11:10:37;26.60;54.40
59309;DHT22;48433;53.016;-2.260;2023-06-05T11:13:07;26.60;53.40
59309;DHT22;48433;53.016;-2.260;2023-06-05T11:15:38;26.50;52.90
59309;DHT22;48433;53.016;-2.260;2023-06-05T11:20:52;26.60;53.20
59309;DHT22;48433;53.016;-2.260;2023-06-05T11:23:19;26.70;53.00
59309;DHT22;48433;53.016;-2.260;2023-06-05T11:25:48;27.20;51.40
59309;DHT22;48433;53.016;-2.260;2023-06-05T11:31:03;27.60;51.20
59309;DHT22;48433;53.016;-2.260;2023-06-05T11:33:31;27.70;50.70
59309;DHT22;48433;53.016;-2.260;2023-06-05T11:35:59;27.40;49.30
59309;DHT22;48433;53.016;-2.260;2023-06-05T11:38:27;27.20;50.30
59309;DHT22;48433;53.016;-2.260;2023-06-05T11:40:55;26.90;50.30
59309;DHT22;48433;53.016;-2.260;2023-06-05T11:43:23;26.90;50.10
59309;DHT22;48433;53.016;-2.260;2023-06-05T11:48:18;27.30;50.40
59309;DHT22;48433;53.016;-2.260;2023-06-05T11:50:52;27.80;49.80
59309;DHT22;48433;53.016;-2.260;2023-06-05T11:53:20;28.00;49.10
59309;DHT22;48433;53.016;-2.260;2023-06-05T11:55:48;28.30;47.90
59309;DHT22;48433;53.016;-2.260;2023-06-05T11:58:21;28.30;47.80
59309;DHT22;48433;53.016;-2.260;2023-06-05T12:00:50;28.10;48.10
59309;DHT22;48433;53.016;-2.260;2023-06-05T12:03:18;28.20;47.90
59309;DHT22;48433;53.016;-2.260;2023-06-05T12:05:47;28.50;46.50
59309;DHT22;48433;53.016;-2.260;2023-06-05T12:08:24;28.50;47.00
59309;DHT22;48433;53.016;-2.260;2023-06-05T12:10:52;28.60;46.40
59309;DHT22;48433;53.016;-2.260;2023-06-05T12:13:20;28.50;46.40
59309;DHT22;48433;53.016;-2.260;2023-06-05T12:15:56;28.50;45.60
59309;DHT22;48433;53.016;-2.260;2023-06-05T12:18:34;28.50;46.00
59309;DHT22;48433;53.016;-2.260;2023-06-05T12:21:01;28.40;46.20
59309;DHT22;48433;53.016;-2.260;2023-06-05T12:23:29;28.20;46.10
59309;DHT22;48433;53.016;-2.260;2023-06-05T12:26:01;27.90;45.60
59309;DHT22;48433;53.016;-2.260;2023-06-05T12:28:29;27.80;46.60
59309;DHT22;48433;53.016;-2.260;2023-06-05T12:30:57;27.40;46.60
59309;DHT22;48433;53.016;-2.260;2023-06-05T12:33:25;27.40;46.90
59309;DHT22;48433;53.016;-2.260;2023-06-05T12:36:08;27.00;47.20
59309;DHT22;48433;53.016;-2.260;2023-06-05T12:38:37;27.00;47.50
59309;DHT22;48433;53.016;-2.260;2023-06-05T12:41:05;27.40;47.00
59309;DHT22;48433;53.016;-2.260;2023-06-05T12:43:34;27.80;47.10
59309;DHT22;48433;53.016;-2.260;2023-06-05T12:46:01;28.20;45.70
59309;DHT22;48433;53.016;-2.260;2023-06-05T12:48:29;28.30;46.00
59309;DHT22;48433;53.016;-2.260;2023-06-05T12:50:57;28.20;45.70
59309;DHT22;48433;53.016;-2.260;2023-06-05T12:53:24;28.20;45.80
59309;DHT22;48433;53.016;-2.260;2023-06-05T12:55:52;28.20;44.70
59309;DHT22;48433;53.016;-2.260;2023-06-05T12:58:19;28.20;45.50
59309;DHT22;48433;53.016;-2.260;2023-06-05T13:00:49;28.30;45.50
59309;DHT22;48433;53.016;-2.260;2023-06-05T13:03:16;28.50;45.60
59309;DHT22;48433;53.016;-2.260;2023-06-05T13:05:44;29.00;44.70
59309;DHT22;48433;53.016;-2.260;2023-06-05T13:08:11;29.00;44.80
59309;DHT22;48433;53.016;-2.260;2023-06-05T13:10:39;29.00;44.70
59309;DHT22;48433;53.016;-2.260;2023-06-05T13:13:07;29.10;44.10
59309;DHT22;48433;53.016;-2.260;2023-06-05T13:15:34;29.40;42.80
59309;DHT22;48433;53.016;-2.260;2023-06-05T13:18:05;29.40;43.20
59309;DHT22;48433;53.016;-2.260;2023-06-05T13:20:35;29.50;42.80
59309;DHT22;48433;53.016;-2.260;2023-06-05T13:23:02;29.70;42.70
59309;DHT22;48433;53.016;-2.260;2023-06-05T13:25:30;29.90;42.20
59309;DHT22;48433;53.016;-2.260;2023-06-05T13:27:57;29.90;42.70
59309;DHT22;48433;53.016;-2.260;2023-06-05T13:30:25;29.90;42.90
59309;DHT22;48433;53.016;-2.260;2023-06-05T13:32:52;29.90;42.60
59309;DHT22;48433;53.016;-2.260;2023-06-05T13:35:21;29.90;41.70
59309;DHT22;48433;53.016;-2.260;2023-06-05T13:37:48;29.90;42.30
59309;DHT22;48433;53.016;-2.260;2023-06-05T13:40:17;29.90;42.20
59309;DHT22;48433;53.016;-2.260;2023-06-05T13:42:48;29.90;42.00
59309;DHT22;48433;53.016;-2.260;2023-06-05T13:45:18;30.00;41.70
59309;DHT22;48433;53.016;-2.260;2023-06-05T13:47:45;30.00;42.10
59309;DHT22;48433;53.016;-2.260;2023-06-05T13:50:13;30.00;42.10
59309;DHT22;48433;53.016;-2.260;2023-06-05T13:52:40;29.90;41.40
59309;DHT22;48433;53.016;-2.260;2023-06-05T13:55:08;29.90;41.50
59309;DHT22;48433;53.016;-2.260;2023-06-05T13:57:35;29.90;41.90
59309;DHT22;48433;53.016;-2.260;2023-06-05T14:00:03;30.00;41.40
59309;DHT22;48433;53.016;-2.260;2023-06-05T14:02:32;30.00;41.50
59309;DHT22;48433;53.016;-2.260;2023-06-05T14:05:00;30.40;40.80
59309;DHT22;48433;53.016;-2.260;2023-06-05T14:07:28;30.30;41.20
59309;DHT22;48433;53.016;-2.260;2023-06-05T14:10:15;30.50;40.80
59309;DHT22;48433;53.016;-2.260;2023-06-05T14:12:42;30.50;40.60
59309;DHT22;48433;53.016;-2.260;2023-06-05T14:15:09;30.10;40.50
59309;DHT22;48433;53.016;-2.260;2023-06-05T14:17:37;30.10;41.00
59309;DHT22;48433;53.016;-2.260;2023-06-05T14:20:05;30.00;40.70
59309;DHT22;48433;53.016;-2.260;2023-06-05T14:22:32;30.10;40.70
59309;DHT22;48433;53.016;-2.260;2023-06-05T14:25:00;30.20;39.80
59309;DHT22;48433;53.016;-2.260;2023-06-05T14:27:27;30.20;40.30
59309;DHT22;48433;53.016;-2.260;2023-06-05T14:29:54;30.20;40.10
59309;DHT22;48433;53.016;-2.260;2023-06-05T14:32:22;30.40;40.10
59309;DHT22;48433;53.016;-2.260;2023-06-05T14:34:49;30.50;39.80
59309;DHT22;48433;53.016;-2.260;2023-06-05T14:37:17;30.60;39.10
59309;DHT22;48433;53.016;-2.260;2023-06-05T14:39:44;30.50;39.30
59309;DHT22;48433;53.016;-2.260;2023-06-05T14:42:12;30.40;39.70
59309;DHT22;48433;53.016;-2.260;2023-06-05T14:44:40;30.30;39.40
59309;DHT22;48433;53.016;-2.260;2023-06-05T14:47:07;30.10;39.00
59309;DHT22;48433;53.016;-2.260;2023-06-05T14:49:34;29.70;39.70
59309;DHT22;48433;53.016;-2.260;2023-06-05T14:52:02;29.50;39.80
59309;DHT22;48433;53.016;-2.260;2023-06-05T14:54:29;29.50;39.90
59309;DHT22;48433;53.016;-2.260;2023-06-05T14:56:57;29.70;39.50
59309;DHT22;48433;53.016;-2.260;2023-06-05T14:59:24;29.80;40.00
59309;DHT22;48433;53.016;-2.260;2023-06-05T15:01:53;30.00;39.80
59309;DHT22;48433;53.016;-2.260;2023-06-05T15:04:21;30.00;39.70
59309;DHT22;48433;53.016;-2.260;2023-06-05T15:06:49;30.00;39.30
59309;DHT22;48433;53.016;-2.260;2023-06-05T15:09:19;30.10;39.70
59309;DHT22;48433;53.016;-2.260;2023-06-05T15:11:46;30.10;39.70
59309;DHT22;48433;53.016;-2.260;2023-06-05T15:14:14;30.00;39.70
59309;DHT22;48433;53.016;-2.260;2023-06-05T15:16:42;29.80;39.40
59309;DHT22;48433;53.016;-2.260;2023-06-05T15:19:09;29.70;39.90
59309;DHT22;48433;53.016;-2.260;2023-06-05T15:21:37;29.60;39.90
59309;DHT22;48433;53.016;-2.260;2023-06-05T15:24:05;29.50;40.30
59309;DHT22;48433;53.016;-2.260;2023-06-05T15:26:33;29.40;40.10
59309;DHT22;48433;53.016;-2.260;2023-06-05T15:29:00;29.50;40.40
59309;DHT22;48433;53.016;-2.260;2023-06-05T15:31:28;29.30;40.40
59309;DHT22;48433;53.016;-2.260;2023-06-05T15:33:55;29.10;41.00
59309;DHT22;48433;53.016;-2.260;2023-06-05T15:36:23;28.90;40.50
59309;DHT22;48433;53.016;-2.260;2023-06-05T15:38:50;28.80;41.10
59309;DHT22;48433;53.016;-2.260;2023-06-05T15:41:18;28.80;41.00
59309;DHT22;48433;53.016;-2.260;2023-06-05T15:43:45;28.80;41.00
59309;DHT22;48433;53.016;-2.260;2023-06-05T15:46:13;28.70;40.80
59309;DHT22;48433;53.016;-2.260;2023-06-05T15:48:40;28.70;41.30
59309;DHT22;48433;53.016;-2.260;2023-06-05T15:51:08;28.80;40.60
59309;DHT22;48433;53.016;-2.260;2023-06-05T15:53:36;28.70;41.20
59309;DHT22;48433;53.016;-2.260;2023-06-05T15:56:21;28.40;41.10
59309;DHT22;48433;53.016;-2.260;2023-06-05T15:58:48;28.20;41.80
59309;DHT22;48433;53.016;-2.260;2023-06-05T16:01:16;28.20;42.10
59309;DHT22;48433;53.016;-2.260;2023-06-05T16:03:43;28.10;42.10
59309;DHT22;48433;53.016;-2.260;2023-06-05T16:06:11;28.00;41.60
59309;DHT22;48433;53.016;-2.260;2023-06-05T16:08:39;27.90;42.20
59309;DHT22;48433;53.016;-2.260;2023-06-05T16:11:07;27.80;42.20